sensor_id;sensor_type;location;lat;lon;timestamp;P1;durP1;ratioP1;P2;durP2;ratioP2
47153;SDS011;32907;41.412;2.164;2023-02-21T00:02:22;23.88;;;20.85;;
47153;SDS011;32907;41.412;2.164;2023-02-21T00:05:10;24.17;;;20.23;;
47153;SDS011;32907;41.412;2.164;2023-02-21T00:07:56;23.20;;;20.70;;
47153;SDS011;32907;41.412;2.164;2023-02-21T00:10:44;24.27;;;20.58;;
47153;SDS011;32907;41.412;2.164;2023-02-21T00:13:34;23.63;;;21.13;;
47153;SDS011;32907;41.412;2.164;2023-02-21T00:16:22;24.13;;;21.38;;
47153;SDS011;32907;41.412;2.164;2023-02-21T00:19:10;27.83;;;23.67;;
47153;SDS011;32907;41.412;2.164;2023-02-21T00:21:56;25.25;;;22.55;;
47153;SDS011;32907;41.412;2.164;2023-02-21T00:24:43;23.60;;;21.13;;
47153;SDS011;32907;41.412;2.164;2023-02-21T00:27:30;24.38;;;21.85;;
47153;SDS011;32907;41.412;2.164;2023-02-21T00:30:16;26.20;;;23.38;;
47153;SDS011;32907;41.412;2.164;2023-02-21T00:33:03;24.60;;;22.00;;
47153;SDS011;32907;41.412;2.164;2023-02-21T00:35:50;27.30;;;24.35;;
47153;SDS011;32907;41.412;2.164;2023-02-21T00:38:36;28.63;;;23.67;;
47153;SDS011;32907;41.412;2.164;2023-02-21T00:41:23;27.38;;;24.48;;
47153;SDS011;32907;41.412;2.164;2023-02-21T00:44:10;26.77;;;24.07;;
47153;SDS011;32907;41.412;2.164;2023-02-21T00:46:57;30.23;;;26.17;;
47153;SDS011;32907;41.412;2.164;2023-02-21T00:49:44;27.30;;;24.38;;
47153;SDS011;32907;41.412;2.164;2023-02-21T00:52:31;28.20;;;25.27;;
47153;SDS011;32907;41.412;2.164;2023-02-21T00:58:05;28.38;;;24.67;;
47153;SDS011;32907;41.412;2.164;2023-02-21T01:00:56;29.92;;;26.40;;
47153;SDS011;32907;41.412;2.164;2023-02-21T01:03:43;27.65;;;24.48;;
47153;SDS011;32907;41.412;2.164;2023-02-21T01:06:32;27.35;;;24.45;;
47153;SDS011;32907;41.412;2.164;2023-02-21T01:09:18;27.77;;;24.48;;
47153;SDS011;32907;41.412;2.164;2023-02-21T01:12:07;29.35;;;24.77;;
47153;SDS011;32907;41.412;2.164;2023-02-21T01:14:57;26.17;;;22.88;;
47153;SDS011;32907;41.412;2.164;2023-02-21T01:17:46;27.35;;;24.40;;
47153;SDS011;32907;41.412;2.164;2023-02-21T01:20:35;30.13;;;25.52;;
47153;SDS011;32907;41.412;2.164;2023-02-21T01:23:22;26.73;;;23.83;;
47153;SDS011;32907;41.412;2.164;2023-02-21T01:26:11;29.40;;;25.75;;
47153;SDS011;32907;41.412;2.164;2023-02-21T01:28:57;27.20;;;23.60;;
47153;SDS011;32907;41.412;2.164;2023-02-21T01:31:44;33.05;;;26.88;;
47153;SDS011;32907;41.412;2.164;2023-02-21T01:34:30;29.60;;;25.92;;
47153;SDS011;32907;41.412;2.164;2023-02-21T01:40:05;27.35;;;24.42;;
47153;SDS011;32907;41.412;2.164;2023-02-21T01:42:51;27.13;;;24.23;;
47153;SDS011;32907;41.412;2.164;2023-02-21T01:45:41;34.08;;;28.25;;
47153;SDS011;32907;41.412;2.164;2023-02-21T01:48:33;29.58;;;26.38;;
47153;SDS011;32907;41.412;2.164;2023-02-21T01:51:23;31.27;;;26.98;;
47153;SDS011;32907;41.412;2.164;2023-02-21T01:54:13;28.73;;;25.55;;
47153;SDS011;32907;41.412;2.164;2023-02-21T01:57:02;28.92;;;25.85;;
47153;SDS011;32907;41.412;2.164;2023-02-21T01:59:51;29.33;;;26.23;;
47153;SDS011;32907;41.412;2.164;2023-02-21T02:03:00;33.00;;;27.98;;
47153;SDS011;32907;41.412;2.164;2023-02-21T02:05:51;30.45;;;27.08;;
47153;SDS011;32907;41.412;2.164;2023-02-21T02:08:41;31.02;;;26.95;;
47153;SDS011;32907;41.412;2.164;2023-02-21T02:23:17;31.90;;;27.95;;
47153;SDS011;32907;41.412;2.164;2023-02-21T02:31:15;32.03;;;28.58;;
47153;SDS011;32907;41.412;2.164;2023-02-21T02:36:48;31.98;;;28.55;;
47153;SDS011;32907;41.412;2.164;2023-02-21T02:47:58;34.88;;;31.08;;
47153;SDS011;32907;41.412;2.164;2023-02-21T02:50:36;36.17;;;32.28;;
47153;SDS011;32907;41.412;2.164;2023-02-21T02:53:07;36.60;;;32.50;;
47153;SDS011;32907;41.412;2.164;2023-02-21T02:58:13;35.63;;;31.45;;
47153;SDS011;32907;41.412;2.164;2023-02-21T03:00:44;35.65;;;31.58;;
47153;SDS011;32907;41.412;2.164;2023-02-21T03:04:30;35.35;;;30.45;;
47153;SDS011;32907;41.412;2.164;2023-02-21T03:15:14;36.05;;;32.17;;
47153;SDS011;32907;41.412;2.164;2023-02-21T03:18:04;36.92;;;32.95;;
47153;SDS011;32907;41.412;2.164;2023-02-21T03:20:38;36.67;;;32.72;;
47153;SDS011;32907;41.412;2.164;2023-02-21T03:23:09;35.35;;;31.52;;
47153;SDS011;32907;41.412;2.164;2023-02-21T03:25:40;37.25;;;31.17;;
47153;SDS011;32907;41.412;2.164;2023-02-21T03:28:11;35.33;;;31.45;;
47153;SDS011;32907;41.412;2.164;2023-02-21T03:30:42;37.50;;;32.63;;
47153;SDS011;32907;41.412;2.164;2023-02-21T03:33:13;34.00;;;30.38;;
47153;SDS011;32907;41.412;2.164;2023-02-21T03:35:41;36.92;;;31.55;;
47153;SDS011;32907;41.412;2.164;2023-02-21T03:38:10;33.08;;;29.50;;
47153;SDS011;32907;41.412;2.164;2023-02-21T03:40:38;36.05;;;30.10;;
47153;SDS011;32907;41.412;2.164;2023-02-21T03:43:06;34.15;;;29.92;;
47153;SDS011;32907;41.412;2.164;2023-02-21T03:45:43;36.58;;;31.35;;
47153;SDS011;32907;41.412;2.164;2023-02-21T03:48:14;32.50;;;29.02;;
47153;SDS011;32907;41.412;2.164;2023-02-21T03:50:57;33.80;;;29.52;;
47153;SDS011;32907;41.412;2.164;2023-02-21T03:53:30;37.10;;;30.85;;
47153;SDS011;32907;41.412;2.164;2023-02-21T03:55:59;33.05;;;29.58;;
47153;SDS011;32907;41.412;2.164;2023-02-21T03:58:36;36.58;;;29.67;;
47153;SDS011;32907;41.412;2.164;2023-02-21T04:01:05;33.03;;;29.35;;
47153;SDS011;32907;41.412;2.164;2023-02-21T04:03:33;31.80;;;27.05;;
47153;SDS011;32907;41.412;2.164;2023-02-21T04:06:03;31.52;;;28.13;;
47153;SDS011;32907;41.412;2.164;2023-02-21T04:08:32;33.08;;;28.83;;
47153;SDS011;32907;41.412;2.164;2023-02-21T04:11:00;30.95;;;27.65;;
47153;SDS011;32907;41.412;2.164;2023-02-21T04:13:31;31.23;;;27.77;;
47153;SDS011;32907;41.412;2.164;2023-02-21T04:16:00;33.42;;;28.95;;
47153;SDS011;32907;41.412;2.164;2023-02-21T04:18:29;36.05;;;30.80;;
47153;SDS011;32907;41.412;2.164;2023-02-21T04:20:59;34.70;;;30.67;;
47153;SDS011;32907;41.412;2.164;2023-02-21T04:23:28;34.42;;;30.17;;
47153;SDS011;32907;41.412;2.164;2023-02-21T04:25:56;33.78;;;29.98;;
47153;SDS011;32907;41.412;2.164;2023-02-21T04:28:31;30.73;;;27.05;;
47153;SDS011;32907;41.412;2.164;2023-02-21T04:30:59;32.65;;;29.13;;
47153;SDS011;32907;41.412;2.164;2023-02-21T04:33:28;32.35;;;28.85;;
47153;SDS011;32907;41.412;2.164;2023-02-21T04:35:58;37.28;;;30.73;;
47153;SDS011;32907;41.412;2.164;2023-02-21T04:38:39;35.47;;;31.17;;
47153;SDS011;32907;41.412;2.164;2023-02-21T04:41:07;32.85;;;28.48;;
47153;SDS011;32907;41.412;2.164;2023-02-21T04:43:35;35.03;;;30.88;;
47153;SDS011;32907;41.412;2.164;2023-02-21T04:46:03;33.00;;;28.48;;
47153;SDS011;32907;41.412;2.164;2023-02-21T04:48:33;30.75;;;26.85;;
47153;SDS011;32907;41.412;2.164;2023-02-21T04:51:01;35.75;;;29.05;;
47153;SDS011;32907;41.412;2.164;2023-02-21T04:53:42;30.95;;;27.42;;
47153;SDS011;32907;41.412;2.164;2023-02-21T04:56:10;31.63;;;28.13;;
47153;SDS011;32907;41.412;2.164;2023-02-21T04:58:40;31.90;;;27.05;;
47153;SDS011;32907;41.412;2.164;2023-02-21T05:01:12;31.27;;;27.98;;
47153;SDS011;32907;41.412;2.164;2023-02-21T05:03:42;29.85;;;26.15;;
47153;SDS011;32907;41.412;2.164;2023-02-21T05:06:21;29.92;;;26.52;;
47153;SDS011;32907;41.412;2.164;2023-02-21T05:08:51;32.78;;;28.58;;
47153;SDS011;32907;41.412;2.164;2023-02-21T05:11:21;29.83;;;26.63;;
47153;SDS011;32907;41.412;2.164;2023-02-21T05:13:50;31.92;;;27.77;;
47153;SDS011;32907;41.412;2.164;2023-02-21T05:16:19;29.05;;;25.85;;
47153;SDS011;32907;41.412;2.164;2023-02-21T05:18:47;31.48;;;27.90;;
47153;SDS011;32907;41.412;2.164;2023-02-21T05:21:16;30.02;;;26.77;;
47153;SDS011;32907;41.412;2.164;2023-02-21T05:23:45;32.20;;;26.50;;
47153;SDS011;32907;41.412;2.164;2023-02-21T05:26:23;31.70;;;26.77;;
47153;SDS011;32907;41.412;2.164;2023-02-21T05:28:53;32.63;;;28.23;;
47153;SDS011;32907;41.412;2.164;2023-02-21T05:31:21;33.08;;;29.50;;
47153;SDS011;32907;41.412;2.164;2023-02-21T05:33:50;32.38;;;28.17;;
47153;SDS011;32907;41.412;2.164;2023-02-21T05:36:18;33.03;;;27.85;;
47153;SDS011;32907;41.412;2.164;2023-02-21T05:38:48;35.03;;;29.13;;
47153;SDS011;32907;41.412;2.164;2023-02-21T05:41:20;33.78;;;29.42;;
47153;SDS011;32907;41.412;2.164;2023-02-21T05:43:49;32.05;;;28.38;;
47153;SDS011;32907;41.412;2.164;2023-02-21T05:48:53;33.80;;;30.10;;
47153;SDS011;32907;41.412;2.164;2023-02-21T05:51:23;31.33;;;27.25;;
47153;SDS011;32907;41.412;2.164;2023-02-21T05:53:52;34.80;;;29.50;;
47153;SDS011;32907;41.412;2.164;2023-02-21T05:56:20;32.58;;;28.85;;
47153;SDS011;32907;41.412;2.164;2023-02-21T05:58:52;33.25;;;29.40;;
47153;SDS011;32907;41.412;2.164;2023-02-21T06:01:20;33.28;;;29.05;;
47153;SDS011;32907;41.412;2.164;2023-02-21T06:03:48;34.65;;;29.48;;
47153;SDS011;32907;41.412;2.164;2023-02-21T06:06:19;36.50;;;31.08;;
47153;SDS011;32907;41.412;2.164;2023-02-21T06:08:47;35.50;;;30.50;;
47153;SDS011;32907;41.412;2.164;2023-02-21T06:11:20;40.47;;;34.40;;
47153;SDS011;32907;41.412;2.164;2023-02-21T06:13:51;39.30;;;33.33;;
47153;SDS011;32907;41.412;2.164;2023-02-21T06:16:20;35.95;;;31.30;;
47153;SDS011;32907;41.412;2.164;2023-02-21T06:18:51;33.78;;;30.02;;
47153;SDS011;32907;41.412;2.164;2023-02-21T06:21:22;36.35;;;30.73;;
47153;SDS011;32907;41.412;2.164;2023-02-21T06:23:50;38.85;;;32.40;;
47153;SDS011;32907;41.412;2.164;2023-02-21T06:26:18;39.30;;;31.88;;
47153;SDS011;32907;41.412;2.164;2023-02-21T06:28:47;35.13;;;30.33;;
47153;SDS011;32907;41.412;2.164;2023-02-21T06:31:16;41.10;;;32.75;;
47153;SDS011;32907;41.412;2.164;2023-02-21T06:33:47;38.08;;;30.73;;
47153;SDS011;32907;41.412;2.164;2023-02-21T06:36:17;40.03;;;30.55;;
47153;SDS011;32907;41.412;2.164;2023-02-21T06:38:47;38.75;;;28.65;;
47153;SDS011;32907;41.412;2.164;2023-02-21T06:41:18;37.08;;;30.40;;
47153;SDS011;32907;41.412;2.164;2023-02-21T06:43:47;34.83;;;27.90;;
47153;SDS011;32907;41.412;2.164;2023-02-21T06:46:17;34.03;;;27.65;;
47153;SDS011;32907;41.412;2.164;2023-02-21T06:48:47;33.08;;;27.20;;
47153;SDS011;32907;41.412;2.164;2023-02-21T06:51:15;36.03;;;27.00;;
47153;SDS011;32907;41.412;2.164;2023-02-21T06:53:45;35.13;;;28.23;;
47153;SDS011;32907;41.412;2.164;2023-02-21T06:56:16;39.92;;;30.20;;
47153;SDS011;32907;41.412;2.164;2023-02-21T06:58:44;33.65;;;28.60;;
47153;SDS011;32907;41.412;2.164;2023-02-21T07:01:12;35.03;;;28.30;;
47153;SDS011;32907;41.412;2.164;2023-02-21T07:03:40;36.13;;;29.45;;
47153;SDS011;32907;41.412;2.164;2023-02-21T07:06:14;35.72;;;28.52;;
47153;SDS011;32907;41.412;2.164;2023-02-21T07:08:42;35.35;;;28.27;;
47153;SDS011;32907;41.412;2.164;2023-02-21T07:11:10;34.05;;;28.42;;
47153;SDS011;32907;41.412;2.164;2023-02-21T07:13:45;34.60;;;28.38;;
47153;SDS011;32907;41.412;2.164;2023-02-21T07:16:20;35.95;;;28.80;;
47153;SDS011;32907;41.412;2.164;2023-02-21T07:18:49;34.38;;;26.95;;
47153;SDS011;32907;41.412;2.164;2023-02-21T07:21:17;38.70;;;31.20;;
47153;SDS011;32907;41.412;2.164;2023-02-21T07:23:47;32.05;;;27.58;;
47153;SDS011;32907;41.412;2.164;2023-02-21T07:26:15;31.85;;;26.98;;
47153;SDS011;32907;41.412;2.164;2023-02-21T07:28:45;39.35;;;29.13;;
47153;SDS011;32907;41.412;2.164;2023-02-21T07:31:14;38.63;;;29.05;;
47153;SDS011;32907;41.412;2.164;2023-02-21T07:33:46;35.15;;;26.85;;
47153;SDS011;32907;41.412;2.164;2023-02-21T07:36:14;31.60;;;26.05;;
47153;SDS011;32907;41.412;2.164;2023-02-21T07:38:42;30.88;;;25.85;;
47153;SDS011;32907;41.412;2.164;2023-02-21T07:41:10;34.08;;;26.33;;
47153;SDS011;32907;41.412;2.164;2023-02-21T07:43:39;31.33;;;26.60;;
47153;SDS011;32907;41.412;2.164;2023-02-21T07:46:10;35.00;;;27.23;;
47153;SDS011;32907;41.412;2.164;2023-02-21T07:48:38;32.55;;;26.30;;
47153;SDS011;32907;41.412;2.164;2023-02-21T07:51:09;34.25;;;26.73;;
47153;SDS011;32907;41.412;2.164;2023-02-21T07:53:39;35.13;;;26.50;;
47153;SDS011;32907;41.412;2.164;2023-02-21T07:56:07;35.47;;;26.85;;
47153;SDS011;32907;41.412;2.164;2023-02-21T07:58:35;33.58;;;25.05;;
47153;SDS011;32907;41.412;2.164;2023-02-21T08:01:06;34.60;;;25.23;;
47153;SDS011;32907;41.412;2.164;2023-02-21T08:03:34;31.30;;;23.65;;
47153;SDS011;32907;41.412;2.164;2023-02-21T08:06:04;35.67;;;25.45;;
47153;SDS011;32907;41.412;2.164;2023-02-21T08:08:32;31.70;;;25.17;;
47153;SDS011;32907;41.412;2.164;2023-02-21T08:11:01;33.63;;;24.15;;
47153;SDS011;32907;41.412;2.164;2023-02-21T08:13:29;28.35;;;23.25;;
47153;SDS011;32907;41.412;2.164;2023-02-21T08:15:58;39.50;;;26.58;;
47153;SDS011;32907;41.412;2.164;2023-02-21T08:18:26;32.33;;;26.00;;
47153;SDS011;32907;41.412;2.164;2023-02-21T08:20:56;33.63;;;25.58;;
47153;SDS011;32907;41.412;2.164;2023-02-21T08:23:23;33.22;;;24.83;;
47153;SDS011;32907;41.412;2.164;2023-02-21T08:25:51;32.38;;;24.05;;
47153;SDS011;32907;41.412;2.164;2023-02-21T08:28:20;30.17;;;22.20;;
47153;SDS011;32907;41.412;2.164;2023-02-21T08:30:47;32.20;;;22.67;;
47153;SDS011;32907;41.412;2.164;2023-02-21T08:33:16;31.42;;;23.33;;
47153;SDS011;32907;41.412;2.164;2023-02-21T08:35:43;34.50;;;25.35;;
47153;SDS011;32907;41.412;2.164;2023-02-21T08:38:12;30.65;;;21.58;;
47153;SDS011;32907;41.412;2.164;2023-02-21T08:40:40;29.70;;;21.80;;
47153;SDS011;32907;41.412;2.164;2023-02-21T08:43:08;34.45;;;21.17;;
47153;SDS011;32907;41.412;2.164;2023-02-21T08:45:35;32.80;;;20.95;;
47153;SDS011;32907;41.412;2.164;2023-02-21T08:48:03;33.05;;;21.63;;
47153;SDS011;32907;41.412;2.164;2023-02-21T08:50:31;25.95;;;20.65;;
47153;SDS011;32907;41.412;2.164;2023-02-21T08:52:59;29.10;;;20.20;;
47153;SDS011;32907;41.412;2.164;2023-02-21T08:55:27;31.33;;;22.15;;
47153;SDS011;32907;41.412;2.164;2023-02-21T08:57:55;27.45;;;20.65;;
47153;SDS011;32907;41.412;2.164;2023-02-21T09:00:24;33.55;;;21.92;;
47153;SDS011;32907;41.412;2.164;2023-02-21T09:02:56;36.20;;;21.48;;
47153;SDS011;32907;41.412;2.164;2023-02-21T09:05:27;27.95;;;19.58;;
47153;SDS011;32907;41.412;2.164;2023-02-21T09:07:57;32.10;;;19.80;;
47153;SDS011;32907;41.412;2.164;2023-02-21T09:10:29;33.35;;;22.98;;
47153;SDS011;32907;41.412;2.164;2023-02-21T09:13:00;31.88;;;24.48;;
47153;SDS011;32907;41.412;2.164;2023-02-21T09:15:29;30.45;;;23.77;;
47153;SDS011;32907;41.412;2.164;2023-02-21T09:17:59;35.55;;;22.50;;
47153;SDS011;32907;41.412;2.164;2023-02-21T09:20:27;36.95;;;24.75;;
47153;SDS011;32907;41.412;2.164;2023-02-21T09:22:55;39.40;;;24.35;;
47153;SDS011;32907;41.412;2.164;2023-02-21T09:25:24;31.33;;;21.50;;
47153;SDS011;32907;41.412;2.164;2023-02-21T09:27:52;24.92;;;21.23;;
47153;SDS011;32907;41.412;2.164;2023-02-21T09:30:22;37.83;;;22.80;;
47153;SDS011;32907;41.412;2.164;2023-02-21T09:32:53;33.15;;;21.42;;
47153;SDS011;32907;41.412;2.164;2023-02-21T09:35:23;33.97;;;21.55;;
47153;SDS011;32907;41.412;2.164;2023-02-21T09:37:51;25.10;;;20.17;;
47153;SDS011;32907;41.412;2.164;2023-02-21T09:43:13;31.53;;;20.93;;
47153;SDS011;32907;41.412;2.164;2023-02-21T09:45:45;28.48;;;20.90;;
47153;SDS011;32907;41.412;2.164;2023-02-21T09:48:17;37.72;;;23.25;;
47153;SDS011;32907;41.412;2.164;2023-02-21T09:50:48;30.00;;;21.40;;
47153;SDS011;32907;41.412;2.164;2023-02-21T09:53:21;37.38;;;22.00;;
47153;SDS011;32907;41.412;2.164;2023-02-21T09:56:03;35.28;;;23.67;;
47153;SDS011;32907;41.412;2.164;2023-02-21T09:58:34;31.63;;;22.98;;
47153;SDS011;32907;41.412;2.164;2023-02-21T10:01:12;32.25;;;23.67;;
47153;SDS011;32907;41.412;2.164;2023-02-21T10:03:49;37.17;;;22.67;;
47153;SDS011;32907;41.412;2.164;2023-02-21T10:17:46;39.92;;;26.65;;
47153;SDS011;32907;41.412;2.164;2023-02-21T10:20:25;41.47;;;26.55;;
47153;SDS011;32907;41.412;2.164;2023-02-21T10:22:59;31.40;;;22.83;;
47153;SDS011;32907;41.412;2.164;2023-02-21T10:25:31;36.58;;;22.30;;
47153;SDS011;32907;41.412;2.164;2023-02-21T10:28:00;31.88;;;22.40;;
47153;SDS011;32907;41.412;2.164;2023-02-21T10:30:29;35.05;;;22.42;;
47153;SDS011;32907;41.412;2.164;2023-02-21T10:33:02;30.67;;;21.75;;
47153;SDS011;32907;41.412;2.164;2023-02-21T10:35:35;28.55;;;20.48;;
47153;SDS011;32907;41.412;2.164;2023-02-21T10:38:15;27.80;;;21.48;;
47153;SDS011;32907;41.412;2.164;2023-02-21T10:40:50;28.30;;;20.70;;
47153;SDS011;32907;41.412;2.164;2023-02-21T10:43:27;32.42;;;21.67;;
47153;SDS011;32907;41.412;2.164;2023-02-21T10:46:08;26.45;;;18.55;;
47153;SDS011;32907;41.412;2.164;2023-02-21T10:48:42;26.48;;;16.77;;
47153;SDS011;32907;41.412;2.164;2023-02-21T10:51:15;21.70;;;14.82;;
47153;SDS011;32907;41.412;2.164;2023-02-21T10:57:02;25.02;;;13.38;;
47153;SDS011;32907;41.412;2.164;2023-02-21T10:59:35;18.70;;;12.20;;
47153;SDS011;32907;41.412;2.164;2023-02-21T11:02:28;21.92;;;13.38;;
47153;SDS011;32907;41.412;2.164;2023-02-21T11:05:10;20.98;;;11.98;;
47153;SDS011;32907;41.412;2.164;2023-02-21T11:10:33;19.65;;;12.38;;
47153;SDS011;32907;41.412;2.164;2023-02-21T11:13:12;19.48;;;10.93;;
47153;SDS011;32907;41.412;2.164;2023-02-21T11:15:43;17.27;;;11.57;;
47153;SDS011;32907;41.412;2.164;2023-02-21T11:18:23;15.13;;;10.30;;
47153;SDS011;32907;41.412;2.164;2023-02-21T11:20:52;16.10;;;11.82;;
47153;SDS011;32907;41.412;2.164;2023-02-21T11:26:09;29.63;;;14.07;;
47153;SDS011;32907;41.412;2.164;2023-02-21T11:28:42;24.65;;;15.32;;
47153;SDS011;32907;41.412;2.164;2023-02-21T11:33:57;20.35;;;9.40;;
47153;SDS011;32907;41.412;2.164;2023-02-21T11:36:28;20.73;;;11.10;;
47153;SDS011;32907;41.412;2.164;2023-02-21T11:41:50;21.30;;;12.57;;
47153;SDS011;32907;41.412;2.164;2023-02-21T11:44:41;20.05;;;13.07;;
47153;SDS011;32907;41.412;2.164;2023-02-21T11:47:26;27.65;;;15.60;;
47153;SDS011;32907;41.412;2.164;2023-02-21T11:52:48;31.77;;;17.92;;
47153;SDS011;32907;41.412;2.164;2023-02-21T11:55:27;28.27;;;16.00;;
47153;SDS011;32907;41.412;2.164;2023-02-21T12:00:46;27.98;;;15.32;;
47153;SDS011;32907;41.412;2.164;2023-02-21T12:11:54;20.67;;;15.88;;
47153;SDS011;32907;41.412;2.164;2023-02-21T12:14:54;31.67;;;17.17;;
47153;SDS011;32907;41.412;2.164;2023-02-21T12:17:39;28.02;;;17.92;;
47153;SDS011;32907;41.412;2.164;2023-02-21T12:23:30;28.27;;;17.50;;
47153;SDS011;32907;41.412;2.164;2023-02-21T12:26:41;27.42;;;20.35;;
47153;SDS011;32907;41.412;2.164;2023-02-21T12:37:32;27.17;;;21.55;;
47153;SDS011;32907;41.412;2.164;2023-02-21T12:40:35;26.88;;;19.95;;
47153;SDS011;32907;41.412;2.164;2023-02-21T12:51:47;28.10;;;20.70;;
47153;SDS011;32907;41.412;2.164;2023-02-21T12:57:48;28.40;;;19.30;;
47153;SDS011;32907;41.412;2.164;2023-02-21T13:00:46;22.60;;;18.30;;
47153;SDS011;32907;41.412;2.164;2023-02-21T13:03:47;25.73;;;17.55;;
47153;SDS011;32907;41.412;2.164;2023-02-21T13:06:25;20.75;;;16.38;;
47153;SDS011;32907;41.412;2.164;2023-02-21T13:09:07;21.13;;;16.13;;
47153;SDS011;32907;41.412;2.164;2023-02-21T13:12:05;23.77;;;16.13;;
47153;SDS011;32907;41.412;2.164;2023-02-21T13:17:42;24.40;;;16.70;;
47153;SDS011;32907;41.412;2.164;2023-02-21T13:20:19;21.73;;;15.93;;
47153;SDS011;32907;41.412;2.164;2023-02-21T13:22:52;19.45;;;14.90;;
47153;SDS011;32907;41.412;2.164;2023-02-21T13:28:19;19.42;;;15.00;;
47153;SDS011;32907;41.412;2.164;2023-02-21T13:30:51;17.67;;;14.30;;
47153;SDS011;32907;41.412;2.164;2023-02-21T13:33:38;17.90;;;13.75;;
47153;SDS011;32907;41.412;2.164;2023-02-21T13:36:22;17.60;;;13.93;;
47153;SDS011;32907;41.412;2.164;2023-02-21T13:38:56;17.30;;;13.65;;
47153;SDS011;32907;41.412;2.164;2023-02-21T13:41:26;18.50;;;13.80;;
47153;SDS011;32907;41.412;2.164;2023-02-21T13:43:56;21.75;;;14.65;;
47153;SDS011;32907;41.412;2.164;2023-02-21T14:08:14;14.93;;;10.77;;
47153;SDS011;32907;41.412;2.164;2023-02-21T14:18:44;11.95;;;9.50;;
47153;SDS011;32907;41.412;2.164;2023-02-21T14:21:21;15.35;;;9.93;;
47153;SDS011;32907;41.412;2.164;2023-02-21T14:39:59;12.27;;;8.40;;
47153;SDS011;32907;41.412;2.164;2023-02-21T14:45:55;12.20;;;9.48;;
47153;SDS011;32907;41.412;2.164;2023-02-21T15:08:17;16.60;;;11.10;;
47153;SDS011;32907;41.412;2.164;2023-02-21T15:11:00;14.85;;;10.48;;
47153;SDS011;32907;41.412;2.164;2023-02-21T15:13:33;15.75;;;10.13;;
47153;SDS011;32907;41.412;2.164;2023-02-21T15:16:06;14.13;;;8.82;;
47153;SDS011;32907;41.412;2.164;2023-02-21T15:18:41;12.80;;;9.07;;
47153;SDS011;32907;41.412;2.164;2023-02-21T15:21:26;13.27;;;8.63;;
47153;SDS011;32907;41.412;2.164;2023-02-21T15:24:00;10.70;;;8.05;;
47153;SDS011;32907;41.412;2.164;2023-02-21T15:26:49;14.02;;;8.75;;
47153;SDS011;32907;41.412;2.164;2023-02-21T15:29:41;15.13;;;9.15;;
47153;SDS011;32907;41.412;2.164;2023-02-21T15:32:09;11.25;;;8.48;;
47153;SDS011;32907;41.412;2.164;2023-02-21T15:34:40;12.73;;;8.73;;
47153;SDS011;32907;41.412;2.164;2023-02-21T15:37:47;18.35;;;9.95;;
47153;SDS011;32907;41.412;2.164;2023-02-21T15:40:14;12.88;;;9.13;;
47153;SDS011;32907;41.412;2.164;2023-02-21T15:42:47;16.58;;;9.25;;
47153;SDS011;32907;41.412;2.164;2023-02-21T15:45:18;10.75;;;8.43;;
47153;SDS011;32907;41.412;2.164;2023-02-21T15:48:00;10.77;;;8.43;;
47153;SDS011;32907;41.412;2.164;2023-02-21T15:50:34;11.45;;;8.20;;
47153;SDS011;32907;41.412;2.164;2023-02-21T15:55:50;12.75;;;7.88;;
47153;SDS011;32907;41.412;2.164;2023-02-21T15:58:23;13.05;;;7.65;;
47153;SDS011;32907;41.412;2.164;2023-02-21T16:01:09;10.13;;;6.95;;
47153;SDS011;32907;41.412;2.164;2023-02-21T16:03:42;14.80;;;8.02;;
47153;SDS011;32907;41.412;2.164;2023-02-21T16:09:02;13.60;;;8.23;;
47153;SDS011;32907;41.412;2.164;2023-02-21T16:20:18;12.23;;;9.00;;
47153;SDS011;32907;41.412;2.164;2023-02-21T16:28:36;16.60;;;10.45;;
47153;SDS011;32907;41.412;2.164;2023-02-21T16:31:13;10.63;;;9.52;;
47153;SDS011;32907;41.412;2.164;2023-02-21T16:33:51;13.73;;;9.93;;
47153;SDS011;32907;41.412;2.164;2023-02-21T16:36:26;13.82;;;10.38;;
47153;SDS011;32907;41.412;2.164;2023-02-21T16:38:56;12.63;;;10.68;;
47153;SDS011;32907;41.412;2.164;2023-02-21T16:41:26;13.40;;;10.85;;
47153;SDS011;32907;41.412;2.164;2023-02-21T16:43:54;14.10;;;10.63;;
47153;SDS011;32907;41.412;2.164;2023-02-21T16:46:25;12.55;;;10.82;;
47153;SDS011;32907;41.412;2.164;2023-02-21T16:48:57;16.40;;;12.15;;
47153;SDS011;32907;41.412;2.164;2023-02-21T16:51:26;16.73;;;12.75;;
47153;SDS011;32907;41.412;2.164;2023-02-21T16:54:05;17.92;;;13.20;;
47153;SDS011;32907;41.412;2.164;2023-02-21T16:56:37;16.25;;;11.68;;
47153;SDS011;32907;41.412;2.164;2023-02-21T16:59:08;13.75;;;11.77;;
47153;SDS011;32907;41.412;2.164;2023-02-21T17:01:45;15.68;;;12.20;;
47153;SDS011;32907;41.412;2.164;2023-02-21T17:04:15;15.60;;;11.40;;
47153;SDS011;32907;41.412;2.164;2023-02-21T17:06:46;15.90;;;11.65;;
47153;SDS011;32907;41.412;2.164;2023-02-21T17:09:21;15.27;;;11.85;;
47153;SDS011;32907;41.412;2.164;2023-02-21T17:11:50;18.27;;;12.40;;
47153;SDS011;32907;41.412;2.164;2023-02-21T17:14:19;14.80;;;10.50;;
47153;SDS011;32907;41.412;2.164;2023-02-21T17:16:48;16.45;;;10.98;;
47153;SDS011;32907;41.412;2.164;2023-02-21T17:19:19;13.75;;;10.30;;
47153;SDS011;32907;41.412;2.164;2023-02-21T17:24:26;14.60;;;10.52;;
47153;SDS011;32907;41.412;2.164;2023-02-21T17:26:55;18.10;;;12.00;;
47153;SDS011;32907;41.412;2.164;2023-02-21T17:29:22;15.85;;;11.60;;
47153;SDS011;32907;41.412;2.164;2023-02-21T17:31:53;15.82;;;10.40;;
47153;SDS011;32907;41.412;2.164;2023-02-21T17:34:22;13.82;;;10.82;;
47153;SDS011;32907;41.412;2.164;2023-02-21T17:36:54;12.55;;;10.10;;
47153;SDS011;32907;41.412;2.164;2023-02-21T17:39:23;12.70;;;9.75;;
47153;SDS011;32907;41.412;2.164;2023-02-21T17:41:51;13.10;;;10.85;;
47153;SDS011;32907;41.412;2.164;2023-02-21T17:44:20;14.50;;;10.50;;
47153;SDS011;32907;41.412;2.164;2023-02-21T17:46:54;15.45;;;10.98;;
47153;SDS011;32907;41.412;2.164;2023-02-21T17:49:24;16.60;;;11.65;;
47153;SDS011;32907;41.412;2.164;2023-02-21T17:51:55;16.52;;;10.40;;
47153;SDS011;32907;41.412;2.164;2023-02-21T17:54:23;13.90;;;11.18;;
47153;SDS011;32907;41.412;2.164;2023-02-21T17:56:55;14.52;;;11.48;;
47153;SDS011;32907;41.412;2.164;2023-02-21T17:59:24;16.05;;;11.73;;
47153;SDS011;32907;41.412;2.164;2023-02-21T18:01:52;15.30;;;11.55;;
47153;SDS011;32907;41.412;2.164;2023-02-21T18:04:23;20.65;;;11.57;;
47153;SDS011;32907;41.412;2.164;2023-02-21T18:06:52;14.75;;;11.10;;
47153;SDS011;32907;41.412;2.164;2023-02-21T18:09:21;17.90;;;10.77;;
47153;SDS011;32907;41.412;2.164;2023-02-21T18:11:51;18.70;;;10.18;;
47153;SDS011;32907;41.412;2.164;2023-02-21T18:14:22;13.73;;;10.20;;
47153;SDS011;32907;41.412;2.164;2023-02-21T18:16:52;14.52;;;10.10;;
47153;SDS011;32907;41.412;2.164;2023-02-21T18:19:24;15.35;;;10.75;;
47153;SDS011;32907;41.412;2.164;2023-02-21T18:21:52;13.63;;;9.57;;
47153;SDS011;32907;41.412;2.164;2023-02-21T18:24:22;14.50;;;9.73;;
47153;SDS011;32907;41.412;2.164;2023-02-21T18:26:53;14.77;;;10.00;;
47153;SDS011;32907;41.412;2.164;2023-02-21T18:29:21;15.90;;;10.85;;
47153;SDS011;32907;41.412;2.164;2023-02-21T18:31:50;13.13;;;9.57;;
47153;SDS011;32907;41.412;2.164;2023-02-21T18:34:22;13.77;;;9.35;;
47153;SDS011;32907;41.412;2.164;2023-02-21T18:36:51;14.00;;;11.43;;
47153;SDS011;32907;41.412;2.164;2023-02-21T18:39:21;14.38;;;9.38;;